Time;durP1;ratioP1;P1;durP2;ratioP2;P2;SDS_P1;SDS_P2;PMS_P1;PMS_P2;Temp;Humidity;BMP_temperature;BMP_pressure;BME280_temperature;BME280_humidity;BME280_pressure;Samples;Min_cycle;Max_cycle;Signal;HPM_P1;HPM_P2
2023/09/01 00:01:32;;;;;;;1.83;1.47;;;13.10;99.90;;;;;;5036836;28;20276;-57
2023/09/01 00:03:57;;;;;;;2.80;1.40;;;13.10;99.90;;;;;;5039093;28;20560;-57
2023/09/01 00:06:23;;;;;;;1.80;1.70;;;13.00;99.90;;;;;;5033467;28;20197;-57
2023/09/01 00:08:48;;;;;;;2.10;1.43;;;12.90;99.90;;;;;;5036971;28;20230;-57
2023/09/01 00:11:14;;;;;;;1.97;1.77;;;13.00;99.90;;;;;;5036907;28;20207;-56
2023/09/01 00:13:39;;;;;;;1.77;1.67;;;13.00;99.90;;;;;;5038568;28;20195;-57
2023/09/01 00:16:05;;;;;;;1.73;1.60;;;13.00;99.90;;;;;;5040584;28;20210;-57
2023/09/01 00:18:31;;;;;;;1.70;1.60;;;13.00;99.90;;;;;;5018934;28;20624;-57
2023/09/01 00:21:06;;;;;;;2.13;1.93;;;13.10;99.90;;;;;;5036114;28;20187;-57
2023/09/01 00:23:32;;;;;;;3.80;1.70;;;13.10;99.90;;;;;;5034040;28;20299;-57
2023/09/01 00:26:00;;;;;;;2.40;1.90;;;13.00;99.90;;;;;;5034378;28;20204;-57
2023/09/01 00:28:26;;;;;;;2.87;1.87;;;13.10;99.90;;;;;;5029046;28;20843;-56
2023/09/01 00:30:56;;;;;;;3.37;2.07;;;13.00;99.90;;;;;;5033516;28;21343;-56
2023/09/01 00:33:25;;;;;;;2.30;1.60;;;13.10;99.90;;;;;;5031275;28;20213;-57
2023/09/01 00:35:51;;;;;;;2.93;2.30;;;13.00;99.90;;;;;;5036039;28;20254;-57
2023/09/01 00:38:16;;;;;;;2.20;1.77;;;13.00;99.90;;;;;;5041042;28;20198;-57
2023/09/01 00:40:42;;;;;;;1.97;1.63;;;12.90;99.90;;;;;;5036282;28;20280;-59
2023/09/01 00:43:07;;;;;;;4.80;2.03;;;13.00;99.90;;;;;;5035364;28;20232;-57
2023/09/01 00:45:36;;;;;;;2.23;1.90;;;12.80;99.90;;;;;;5030845;28;20302;-56
2023/09/01 00:48:01;;;;;;;2.23;1.83;;;12.90;99.90;;;;;;5029084;28;20219;-56
2023/09/01 00:50:27;;;;;;;3.17;2.07;;;12.80;99.90;;;;;;5035259;28;20210;-58
2023/09/01 00:52:54;;;;;;;7.50;1.80;;;12.90;99.90;;;;;;5038015;28;20286;-57
2023/09/01 00:55:19;;;;;;;2.33;2.23;;;12.80;99.90;;;;;;5033407;28;20312;-56
2023/09/01 00:57:45;;;;;;;4.10;2.10;;;12.80;99.90;;;;;;5035116;28;20622;-56
2023/09/01 01:00:11;;;;;;;2.30;2.03;;;12.90;99.90;;;;;;5036599;28;20206;-56
2023/09/01 01:02:36;;;;;;;1.90;1.77;;;13.00;99.90;;;;;;5033409;28;20195;-56
2023/09/01 01:05:13;;;;;;;2.50;2.30;;;13.00;99.90;;;;;;5034267;28;20237;-56
2023/09/01 01:07:50;;;;;;;2.63;2.30;;;12.90;99.90;;;;;;5033526;28;20320;-57
2023/09/01 01:10:21;;;;;;;2.57;2.37;;;13.00;99.90;;;;;;5028854;28;20198;-55
2023/09/01 01:12:57;;;;;;;4.37;2.43;;;13.00;99.90;;;;;;5038137;28;20210;-57
2023/09/01 01:15:24;;;;;;;4.57;2.37;;;12.90;99.90;;;;;;5037359;28;20219;-56
2023/09/01 01:17:51;;;;;;;2.63;2.10;;;12.90;99.90;;;;;;5038853;28;20199;-56
2023/09/01 01:20:33;;;;;;;2.60;1.90;;;12.80;99.90;;;;;;5035873;28;20217;-56
2023/09/01 01:23:09;;;;;;;3.20;2.20;;;12.90;99.90;;;;;;5032750;28;20218;-56
2023/09/01 01:25:35;;;;;;;1.83;1.73;;;12.80;99.90;;;;;;5036494;28;20199;-56
2023/09/01 01:28:07;;;;;;;4.10;2.57;;;12.90;99.90;;;;;;5036445;28;21033;-57
2023/09/01 01:30:33;;;;;;;2.60;2.40;;;12.80;99.90;;;;;;5038820;28;20199;-57
2023/09/01 01:32:59;;;;;;;7.43;2.50;;;12.80;99.90;;;;;;5031470;28;20203;-56
2023/09/01 01:35:40;;;;;;;2.40;2.20;;;12.80;99.90;;;;;;5035342;28;20279;-56
2023/09/01 01:38:20;;;;;;;3.13;2.53;;;12.70;99.90;;;;;;5036396;28;20770;-55
2023/09/01 01:40:52;;;;;;;2.80;2.60;;;12.70;99.90;;;;;;5033750;28;20198;-56
2023/09/01 01:43:22;;;;;;;2.50;2.30;;;12.70;99.90;;;;;;5015947;28;20229;-55
2023/09/01 01:45:48;;;;;;;3.60;2.37;;;12.60;99.90;;;;;;5015214;28;20201;-56
2023/09/01 01:48:14;;;;;;;3.83;2.17;;;12.60;99.90;;;;;;5045444;28;20258;-66
2023/09/01 01:50:41;;;;;;;4.23;2.57;;;12.60;99.90;;;;;;5041296;28;20246;-60
2023/09/01 01:53:07;;;;;;;3.40;2.33;;;12.70;99.90;;;;;;5038179;28;20202;-60
2023/09/01 01:55:33;;;;;;;2.70;2.00;;;12.70;99.90;;;;;;5038139;28;20604;-56
2023/09/01 01:57:58;;;;;;;5.37;2.13;;;12.70;99.90;;;;;;5038499;28;20211;-55
2023/09/01 02:00:26;;;;;;;2.33;2.23;;;12.60;99.90;;;;;;5041087;28;20568;-56
2023/09/01 02:02:52;;;;;;;3.10;2.20;;;12.60;99.90;;;;;;5043487;28;20941;-56
2023/09/01 02:05:17;;;;;;;2.50;2.30;;;12.70;99.90;;;;;;5019035;28;20220;-56
2023/09/01 02:07:43;;;;;;;4.60;2.43;;;12.70;99.90;;;;;;5040374;28;20213;-56
2023/09/01 02:10:09;;;;;;;3.60;2.03;;;12.60;99.90;;;;;;5045929;28;20210;-55
2023/09/01 02:12:34;;;;;;;2.53;2.33;;;12.40;99.90;;;;;;5038510;28;20713;-55
2023/09/01 02:15:00;;;;;;;2.70;2.50;;;12.50;99.90;;;;;;5041371;28;20218;-54
2023/09/01 02:17:26;;;;;;;4.93;2.63;;;12.40;99.90;;;;;;5034120;28;20680;-54
2023/09/01 02:19:51;;;;;;;3.17;2.70;;;12.60;99.90;;;;;;5038552;28;20260;-56
2023/09/01 02:22:17;;;;;;;3.23;2.57;;;12.60;99.90;;;;;;5037698;28;20885;-56
2023/09/01 02:24:42;;;;;;;4.30;2.70;;;12.50;99.90;;;;;;5040098;28;20316;-57
2023/09/01 02:27:08;;;;;;;4.80;2.93;;;12.60;99.90;;;;;;5038340;28;20209;-57
2023/09/01 02:29:33;;;;;;;3.23;2.60;;;12.60;99.90;;;;;;5037068;28;20200;-57
2023/09/01 02:31:59;;;;;;;3.00;2.77;;;12.60;99.90;;;;;;5026990;28;20201;-56
2023/09/01 02:34:24;;;;;;;3.47;2.40;;;12.60;99.90;;;;;;5033874;28;20595;-57
2023/09/01 02:36:50;;;;;;;3.37;2.67;;;12.60;99.90;;;;;;5036194;28;20249;-57
2023/09/01 02:39:16;;;;;;;3.43;2.73;;;12.60;99.90;;;;;;5035091;28;20195;-57
2023/09/01 02:41:42;;;;;;;3.43;2.63;;;12.60;99.90;;;;;;5038886;28;20202;-58
2023/09/01 02:44:08;;;;;;;3.23;2.93;;;12.50;99.90;;;;;;5038166;28;20205;-57
2023/09/01 02:46:33;;;;;;;3.33;3.03;;;12.40;99.90;;;;;;5041756;28;20244;-56
2023/09/01 02:48:59;;;;;;;6.07;2.90;;;12.40;99.90;;;;;;5045579;28;20208;-56
2023/09/01 02:51:25;;;;;;;5.33;3.00;;;12.40;99.90;;;;;;5031972;28;20201;-57
2023/09/01 02:53:50;;;;;;;5.93;2.90;;;12.30;99.90;;;;;;5036184;28;20202;-58
2023/09/01 02:56:17;;;;;;;3.87;3.33;;;12.40;99.90;;;;;;5036654;28;20197;-57
2023/09/01 02:58:43;;;;;;;3.17;2.97;;;12.40;99.90;;;;;;5037734;28;20198;-56
2023/09/01 03:01:10;;;;;;;3.40;2.70;;;12.40;99.90;;;;;;5035807;28;20655;-56
2023/09/01 03:03:37;;;;;;;6.23;3.20;;;12.50;99.90;;;;;;5034667;28;20316;-56
2023/09/01 03:06:05;;;;;;;3.77;3.10;;;12.60;99.90;;;;;;5039965;28;20201;-56
2023/09/01 03:08:31;;;;;;;3.00;2.63;;;12.50;99.90;;;;;;5037562;28;20191;-57
2023/09/01 03:10:56;;;;;;;6.23;2.93;;;12.60;99.90;;;;;;5035147;28;20186;-56
2023/09/01 03:13:22;;;;;;;3.63;3.33;;;12.60;99.90;;;;;;5032844;28;20206;-56
2023/09/01 03:15:47;;;;;;;4.80;3.30;;;12.50;99.90;;;;;;5039807;28;20230;-56
2023/09/01 03:18:13;;;;;;;5.57;3.23;;;12.60;99.90;;;;;;5039948;28;20712;-56
2023/09/01 03:20:40;;;;;;;4.13;3.23;;;12.60;99.90;;;;;;5035334;28;20586;-57
2023/09/01 03:23:05;;;;;;;4.23;3.00;;;12.50;99.90;;;;;;5034406;28;20198;-56
2023/09/01 03:25:31;;;;;;;3.63;3.33;;;12.60;99.90;;;;;;5041545;28;21020;-56
2023/09/01 03:27:57;;;;;;;5.83;3.37;;;12.70;99.90;;;;;;5035174;28;20668;-56
2023/09/01 03:30:22;;;;;;;3.60;3.30;;;12.60;99.90;;;;;;5034404;28;20755;-56
2023/09/01 03:32:48;;;;;;;5.80;3.53;;;12.60;99.90;;;;;;5023138;28;20218;-56
2023/09/01 03:35:13;;;;;;;3.97;3.40;;;12.60;99.90;;;;;;5041442;28;20218;-56
2023/09/01 03:37:39;;;;;;;3.50;3.20;;;12.60;99.90;;;;;;5032234;28;20316;-56
2023/09/01 03:40:09;;;;;;;3.77;2.97;;;12.60;99.90;;;;;;5041881;28;20209;-56
2023/09/01 03:42:35;;;;;;;5.73;3.20;;;12.60;99.90;;;;;;5035219;28;20249;-56
2023/09/01 03:45:01;;;;;;;4.10;3.70;;;12.60;99.90;;;;;;5035192;28;20941;-57
2023/09/01 03:47:26;;;;;;;3.70;3.40;;;12.70;99.90;;;;;;5034185;28;20325;-56
2023/09/01 03:49:52;;;;;;;5.37;3.27;;;12.60;99.90;;;;;;5034212;28;20209;-56
2023/09/01 03:52:17;;;;;;;4.90;2.80;;;12.60;99.90;;;;;;5037028;28;20271;-57
2023/09/01 03:54:43;;;;;;;4.33;3.40;;;12.60;99.90;;;;;;5033996;28;20251;-57
2023/09/01 03:57:08;;;;;;;5.63;3.53;;;12.60;99.90;;;;;;5035137;28;20210;-55
2023/09/01 03:59:34;;;;;;;3.40;3.10;;;12.60;99.90;;;;;;5036294;28;20308;-58
2023/09/01 04:01:59;;;;;;;3.47;2.90;;;12.50;99.90;;;;;;5038479;28;20203;-55
2023/09/01 04:04:24;;;;;;;2.87;2.57;;;12.60;99.90;;;;;;5034313;28;20211;-55
2023/09/01 04:06:50;;;;;;;6.37;3.70;;;12.50;99.90;;;;;;5031638;28;20263;-58
2023/09/01 04:09:15;;;;;;;3.63;3.33;;;12.50;99.90;;;;;;5035771;28;20209;-56
2023/09/01 04:11:41;;;;;;;4.67;3.07;;;12.50;99.90;;;;;;5036455;28;20431;-57
2023/09/01 04:14:09;;;;;;;3.70;3.20;;;12.40;99.90;;;;;;5037265;28;20225;-57
2023/09/01 04:16:34;;;;;;;4.20;3.80;;;12.40;99.90;;;;;;5034433;28;20194;-57
2023/09/01 04:19:00;;;;;;;4.60;3.20;;;12.30;99.90;;;;;;5036057;28;20609;-56
2023/09/01 04:21:25;;;;;;;5.33;3.40;;;12.20;99.90;;;;;;5035025;28;20548;-57
2023/09/01 04:23:50;;;;;;;3.60;3.30;;;12.20;99.90;;;;;;5015359;28;20201;-56
2023/09/01 04:26:16;;;;;;;4.97;4.20;;;12.20;99.90;;;;;;5040383;28;20528;-56
2023/09/01 04:28:42;;;;;;;7.40;3.70;;;12.10;99.90;;;;;;5032245;28;20243;-55
2023/09/01 04:31:29;;;;;;;5.13;3.87;;;11.90;99.90;;;;;;5037739;28;20203;-55
2023/09/01 04:33:55;;;;;;;5.00;3.47;;;11.90;99.90;;;;;;5038748;28;20221;-56
2023/09/01 04:36:21;;;;;;;6.50;3.90;;;11.80;99.90;;;;;;5033395;28;20206;-55
2023/09/01 04:38:47;;;;;;;4.43;3.37;;;11.90;99.90;;;;;;5034544;28;20191;-57
2023/09/01 04:41:12;;;;;;;5.50;4.13;;;11.90;99.90;;;;;;5043361;28;20525;-64
2023/09/01 04:43:38;;;;;;;3.90;3.70;;;11.80;99.90;;;;;;5035884;28;20600;-60
2023/09/01 04:46:04;;;;;;;4.50;4.03;;;11.80;99.90;;;;;;5039785;28;20235;-58
2023/09/01 04:48:30;;;;;;;5.30;4.63;;;11.70;99.90;;;;;;5040436;28;20321;-55
2023/09/01 04:50:56;;;;;;;6.77;4.40;;;11.70;99.90;;;;;;5033479;28;20254;-55
2023/09/01 04:53:22;;;;;;;6.53;4.23;;;11.70;99.90;;;;;;5038837;28;20245;-55
2023/09/01 04:55:48;;;;;;;4.93;4.00;;;11.50;99.90;;;;;;5031970;28;20313;-56
2023/09/01 04:58:14;;;;;;;4.20;3.80;;;11.60;99.90;;;;;;5041481;28;20471;-55
2023/09/01 05:00:39;;;;;;;4.17;3.87;;;11.60;99.90;;;;;;5035429;28;20842;-56
2023/09/01 05:03:05;;;;;;;5.93;4.27;;;11.60;99.90;;;;;;5036519;28;20202;-56
2023/09/01 05:05:30;;;;;;;4.97;3.83;;;11.70;99.90;;;;;;5040587;28;20221;-57
2023/09/01 05:07:56;;;;;;;5.43;4.80;;;11.60;99.90;;;;;;5028636;28;20545;-57
2023/09/01 05:10:22;;;;;;;4.23;3.77;;;11.60;99.90;;;;;;5033218;28;20192;-57
2023/09/01 05:12:47;;;;;;;4.57;4.17;;;11.70;99.90;;;;;;5036146;28;20683;-56
2023/09/01 05:15:13;;;;;;;5.20;4.00;;;11.80;99.90;;;;;;5031233;28;20700;-56
2023/09/01 05:17:39;;;;;;;5.93;4.60;;;11.90;99.90;;;;;;5031980;28;20259;-55
2023/09/01 05:20:08;;;;;;;4.37;3.93;;;12.00;99.90;;;;;;5036767;28;20332;-65
2023/09/01 05:22:34;;;;;;;4.27;3.97;;;12.00;99.90;;;;;;5039684;28;20206;-57
2023/09/01 05:25:00;;;;;;;4.90;4.07;;;11.90;99.90;;;;;;5043993;28;20195;-57
2023/09/01 05:27:25;;;;;;;6.60;4.60;;;11.90;99.90;;;;;;5037533;28;20211;-57
2023/09/01 05:29:52;;;;;;;4.47;4.10;;;12.00;99.90;;;;;;5040698;28;20202;-56
2023/09/01 05:32:19;;;;;;;4.33;3.73;;;12.20;99.90;;;;;;5037180;28;20680;-57
2023/09/01 05:34:44;;;;;;;6.00;4.40;;;12.20;99.90;;;;;;5038656;28;20321;-56
2023/09/01 05:37:13;;;;;;;4.93;4.50;;;12.20;99.90;;;;;;5037757;28;20695;-58
2023/09/01 05:39:40;;;;;;;4.47;4.07;;;12.20;99.90;;;;;;5039820;28;20197;-56
2023/09/01 05:42:07;;;;;;;5.17;4.73;;;12.30;99.90;;;;;;5038892;28;20271;-67
2023/09/01 05:44:32;;;;;;;4.20;3.57;;;12.30;99.90;;;;;;5034415;28;20286;-59
2023/09/01 05:46:58;;;;;;;5.60;4.47;;;12.30;99.90;;;;;;5034762;28;20317;-59
2023/09/01 05:49:24;;;;;;;5.90;5.00;;;12.30;99.90;;;;;;5041110;28;20282;-60
2023/09/01 05:51:50;;;;;;;4.60;4.20;;;12.40;99.90;;;;;;5039256;28;20210;-59
2023/09/01 05:54:17;;;;;;;4.83;4.37;;;12.40;99.90;;;;;;5020778;28;21190;-59
2023/09/01 05:56:43;;;;;;;5.50;4.60;;;12.50;99.90;;;;;;5035970;28;20224;-54
2023/09/01 05:59:08;;;;;;;5.00;4.57;;;12.60;99.90;;;;;;5040319;28;20555;-55
2023/09/01 06:01:35;;;;;;;5.10;4.60;;;12.70;99.90;;;;;;5021398;28;20314;-55
2023/09/01 06:04:04;;;;;;;4.93;3.93;;;12.70;99.90;;;;;;5040531;28;20198;-53
2023/09/01 06:06:31;;;;;;;4.93;4.47;;;12.70;99.90;;;;;;5018344;28;20208;-54
2023/09/01 06:09:00;;;;;;;7.17;4.43;;;12.80;99.90;;;;;;5039447;28;20594;-61
2023/09/01 06:11:26;;;;;;;4.93;4.43;;;12.90;99.90;;;;;;5035307;28;20231;-60
2023/09/01 06:13:51;;;;;;;4.77;4.10;;;13.00;99.90;;;;;;5036752;28;20204;-58
2023/09/01 06:16:17;;;;;;;5.67;4.93;;;13.10;99.90;;;;;;5013907;28;20968;-58
2023/09/01 06:18:42;;;;;;;4.33;3.93;;;13.20;99.90;;;;;;5036589;28;20217;-58
2023/09/01 06:21:10;;;;;;;5.17;4.63;;;13.20;99.90;;;;;;5032403;28;20202;-59
2023/09/01 06:23:40;;;;;;;5.03;4.47;;;13.30;99.90;;;;;;5037301;28;20277;-58
2023/09/01 06:26:06;;;;;;;4.87;4.37;;;13.40;99.90;;;;;;5036456;28;20190;-58
2023/09/01 06:28:33;;;;;;;4.50;4.07;;;13.40;99.90;;;;;;5034672;28;20619;-57
2023/09/01 06:30:58;;;;;;;4.53;4.13;;;13.50;99.90;;;;;;5030616;28;20965;-56
2023/09/01 06:33:24;;;;;;;5.40;4.10;;;13.60;99.90;;;;;;5034438;28;20210;-56
2023/09/01 06:35:49;;;;;;;4.60;4.20;;;13.70;99.90;;;;;;5039690;28;20306;-55
2023/09/01 06:38:15;;;;;;;4.97;4.53;;;13.70;99.90;;;;;;5039564;28;20704;-55
2023/09/01 06:40:40;;;;;;;4.47;4.07;;;13.80;99.90;;;;;;5039547;28;20206;-55
2023/09/01 06:43:06;;;;;;;4.33;3.93;;;13.90;99.90;;;;;;5040514;28;20713;-64
2023/09/01 06:45:32;;;;;;;4.57;3.83;;;14.00;99.90;;;;;;5028072;28;20232;-63
2023/09/01 06:47:58;;;;;;;6.03;4.17;;;14.10;99.90;;;;;;5039777;28;20219;-56
2023/09/01 06:50:24;;;;;;;4.87;4.10;;;14.10;99.90;;;;;;5036404;28;20198;-55
2023/09/01 06:52:50;;;;;;;4.73;4.33;;;14.10;99.90;;;;;;5041637;28;20197;-55
2023/09/01 06:55:16;;;;;;;5.43;4.50;;;14.20;99.90;;;;;;5033585;28;20214;-55
2023/09/01 06:57:42;;;;;;;5.87;4.37;;;14.30;99.90;;;;;;5035279;28;20626;-55
2023/09/01 07:00:09;;;;;;;4.33;4.03;;;14.30;99.90;;;;;;5037461;28;20236;-55
2023/09/01 07:02:34;;;;;;;10.00;4.20;;;14.50;99.90;;;;;;5037158;28;20252;-55
2023/09/01 07:05:00;;;;;;;6.30;3.80;;;14.60;99.90;;;;;;5026058;28;20200;-53
2023/09/01 07:07:26;;;;;;;6.47;4.23;;;14.80;99.90;;;;;;5032918;28;20257;-54
2023/09/01 07:09:51;;;;;;;5.77;4.03;;;14.70;99.90;;;;;;5029498;28;20203;-53
2023/09/01 07:12:16;;;;;;;6.60;3.87;;;14.80;99.90;;;;;;5034531;28;20713;-53
2023/09/01 07:14:42;;;;;;;4.20;3.33;;;14.90;99.90;;;;;;5036281;28;20225;-54
2023/09/01 07:17:10;;;;;;;5.57;3.97;;;15.00;99.90;;;;;;5030898;28;20214;-55
2023/09/01 07:19:36;;;;;;;4.13;3.73;;;15.00;99.90;;;;;;5034986;28;20195;-55
2023/09/01 07:22:03;;;;;;;5.57;3.67;;;15.10;99.90;;;;;;5041993;28;20267;-56
2023/09/01 07:24:28;;;;;;;7.03;3.87;;;15.10;99.90;;;;;;5032678;28;20229;-56
2023/09/01 07:26:54;;;;;;;7.43;3.90;;;15.10;99.90;;;;;;5041559;28;20245;-52
2023/09/01 07:29:19;;;;;;;3.03;2.83;;;15.20;99.90;;;;;;5020383;28;20182;-54
2023/09/01 07:31:45;;;;;;;3.97;3.50;;;15.20;99.90;;;;;;5036682;28;20237;-53
2023/09/01 07:34:10;;;;;;;7.70;3.57;;;15.20;99.90;;;;;;5034147;28;20202;-54
2023/09/01 07:36:36;;;;;;;3.47;3.17;;;15.20;99.90;;;;;;5033265;28;20282;-53
2023/09/01 07:39:01;;;;;;;5.20;3.90;;;15.20;99.90;;;;;;5037843;28;20697;-55
2023/09/01 07:41:27;;;;;;;6.07;4.07;;;15.30;99.90;;;;;;5033061;28;20194;-54
2023/09/01 07:43:52;;;;;;;4.77;4.37;;;15.50;99.90;;;;;;5022827;28;20257;-53
2023/09/01 07:46:18;;;;;;;5.43;3.30;;;15.60;99.90;;;;;;5036841;28;20209;-54
2023/09/01 07:48:43;;;;;;;5.63;3.73;;;15.50;99.90;;;;;;5038639;28;21106;-54
2023/09/01 07:51:09;;;;;;;4.87;3.77;;;15.60;99.90;;;;;;5014600;28;20668;-55
2023/09/01 07:53:36;;;;;;;5.77;3.80;;;15.70;99.90;;;;;;5018877;28;20201;-56
2023/09/01 07:56:02;;;;;;;4.27;3.93;;;15.60;99.90;;;;;;5028787;28;20261;-55
2023/09/01 07:58:28;;;;;;;5.23;4.17;;;15.70;99.90;;;;;;5034993;28;20685;-55
2023/09/01 08:00:53;;;;;;;5.13;4.50;;;15.70;99.90;;;;;;5042788;28;20895;-56
2023/09/01 08:03:19;;;;;;;4.77;3.83;;;15.70;99.90;;;;;;5036239;28;20197;-56
2023/09/01 08:05:44;;;;;;;4.60;4.30;;;15.90;99.90;;;;;;5033972;28;20206;-56
2023/09/01 08:08:13;;;;;;;7.10;5.17;;;16.10;99.90;;;;;;5032064;28;20236;-56
2023/09/01 08:10:38;;;;;;;6.93;4.73;;;16.00;99.90;;;;;;5032687;28;20284;-55
2023/09/01 08:13:05;;;;;;;5.97;4.30;;;16.00;99.90;;;;;;5037394;28;20683;-53
2023/09/01 08:15:31;;;;;;;4.20;3.87;;;16.00;99.90;;;;;;5035068;28;20264;-52
2023/09/01 08:17:56;;;;;;;6.30;5.23;;;16.20;99.90;;;;;;5031362;28;20206;-59
2023/09/01 08:20:22;;;;;;;4.90;3.80;;;16.30;99.90;;;;;;5033569;28;20198;-57
2023/09/01 08:22:48;;;;;;;6.57;4.13;;;16.40;99.90;;;;;;5033160;28;20282;-55
2023/09/01 08:25:13;;;;;;;8.93;5.33;;;16.50;99.90;;;;;;5035702;28;20194;-63
2023/09/01 08:27:39;;;;;;;4.87;3.77;;;16.40;99.90;;;;;;5036411;28;20277;-53
2023/09/01 08:30:06;;;;;;;4.87;4.47;;;16.50;99.90;;;;;;5036013;28;21207;-53
2023/09/01 08:32:33;;;;;;;5.10;4.50;;;16.70;99.90;;;;;;5034175;28;20191;-54
2023/09/01 08:34:58;;;;;;;8.57;4.00;;;16.60;99.90;;;;;;5029436;28;20226;-53
2023/09/01 08:37:24;;;;;;;4.77;3.77;;;16.90;99.90;;;;;;5037204;28;20207;-53
2023/09/01 08:39:49;;;;;;;6.70;4.03;;;16.90;99.90;;;;;;5026345;28;20203;-62
2023/09/01 08:42:17;;;;;;;4.63;2.90;;;16.90;99.90;;;;;;5030974;28;20267;-60
2023/09/01 08:44:43;;;;;;;5.97;3.77;;;17.00;99.90;;;;;;5026631;28;20202;-53
2023/09/01 08:47:09;;;;;;;5.03;4.20;;;17.10;99.90;;;;;;5031311;28;20233;-54
2023/09/01 08:49:35;;;;;;;4.13;3.20;;;17.20;99.90;;;;;;5036737;28;20272;-53
2023/09/01 08:52:02;;;;;;;5.30;4.23;;;17.20;99.90;;;;;;5028424;28;20286;-60
2023/09/01 08:54:28;;;;;;;9.13;3.87;;;17.10;99.90;;;;;;5031600;28;20223;-52
2023/09/01 08:56:54;;;;;;;3.07;2.77;;;17.30;99.90;;;;;;5037165;28;20974;-52
2023/09/01 08:59:19;;;;;;;4.23;2.87;;;17.40;99.90;;;;;;5032268;28;20254;-52
2023/09/01 09:01:47;;;;;;;3.40;2.77;;;17.50;99.90;;;;;;5037788;28;20199;-53
2023/09/01 09:04:13;;;;;;;6.27;2.90;;;17.50;99.90;;;;;;5018871;28;20199;-55
2023/09/01 09:06:39;;;;;;;3.30;2.40;;;17.50;99.90;;;;;;5038495;28;20270;-57
2023/09/01 09:09:08;;;;;;;7.87;3.40;;;17.70;99.90;;;;;;5039100;28;20217;-61
2023/09/01 09:11:34;;;;;;;4.83;2.17;;;17.80;99.90;;;;;;5042067;28;20954;-63
2023/09/01 09:13:59;;;;;;;4.63;3.00;;;17.70;99.90;;;;;;5046552;28;20191;-61
2023/09/01 09:16:25;;;;;;;4.13;2.67;;;17.70;99.90;;;;;;5041732;28;20568;-61
2023/09/01 09:18:50;;;;;;;3.43;2.40;;;17.70;99.90;;;;;;5044229;28;20691;-61
2023/09/01 09:21:30;;;;;;;3.80;2.57;;;17.90;99.90;;;;;;5041707;28;20214;-62
2023/09/01 09:24:01;;;;;;;4.97;2.40;;;17.90;99.90;;;;;;5042769;28;20194;-55
2023/09/01 09:26:27;;;;;;;3.20;1.90;;;17.80;99.90;;;;;;5031084;28;20230;-51
2023/09/01 09:28:53;;;;;;;6.47;2.57;;;17.90;99.90;;;;;;5037482;28;20195;-52
2023/09/01 09:31:40;;;;;;;5.33;2.90;;;17.90;99.90;;;;;;5035322;28;20202;-53
2023/09/01 09:34:24;;;;;;;4.50;2.10;;;17.90;99.90;;;;;;5037595;28;20243;-61
2023/09/01 09:36:49;;;;;;;2.87;2.40;;;18.10;99.90;;;;;;5033178;28;20202;-57
2023/09/01 09:39:25;;;;;;;5.07;2.77;;;18.20;99.90;;;;;;5033502;28;20599;-56
2023/09/01 09:41:52;;;;;;;2.93;1.83;;;18.30;99.90;;;;;;5014658;28;20285;-56
2023/09/01 09:44:26;;;;;;;5.50;2.50;;;18.30;99.90;;;;;;5028485;28;20725;-56
2023/09/01 09:46:54;;;;;;;4.07;3.00;;;18.30;99.90;;;;;;5037441;28;20431;-56
2023/09/01 09:49:21;;;;;;;3.50;2.23;;;18.40;99.90;;;;;;5035316;28;20241;-56
2023/09/01 09:51:50;;;;;;;4.10;2.50;;;18.30;99.90;;;;;;5032586;28;20208;-53
2023/09/01 09:54:21;;;;;;;3.40;2.20;;;18.30;99.90;;;;;;5035809;28;20205;-53
2023/09/01 09:56:51;;;;;;;3.57;2.27;;;18.40;99.90;;;;;;5035808;28;20297;-54
2023/09/01 09:59:29;;;;;;;7.27;2.53;;;18.50;99.90;;;;;;5011777;28;20202;-54
2023/09/01 10:01:57;;;;;;;3.20;2.37;;;18.60;99.90;;;;;;5015062;28;20198;-58
2023/09/01 10:04:23;;;;;;;4.73;2.50;;;18.70;99.90;;;;;;5042380;28;20680;-57
2023/09/01 10:06:49;;;;;;;3.63;2.23;;;18.80;99.90;;;;;;5031247;28;20198;-53
2023/09/01 10:09:17;;;;;;;3.00;2.30;;;18.80;99.90;;;;;;5043640;28;20201;-52
2023/09/01 10:11:44;;;;;;;2.83;1.60;;;18.90;99.90;;;;;;5032358;28;20254;-52
2023/09/01 10:14:13;;;;;;;2.53;1.63;;;19.00;99.90;;;;;;5038013;28;20209;-56
2023/09/01 10:16:39;;;;;;;3.63;2.43;;;19.10;99.90;;;;;;5039252;28;20618;-54
2023/09/01 10:19:05;;;;;;;5.90;2.47;;;18.90;99.90;;;;;;5040016;28;20200;-61
2023/09/01 10:21:31;;;;;;;4.37;2.20;;;19.00;99.90;;;;;;5037265;28;20191;-60
2023/09/01 10:23:57;;;;;;;4.03;2.23;;;19.00;99.90;;;;;;5036272;28;20200;-58
2023/09/01 10:26:25;;;;;;;4.07;2.13;;;19.20;99.90;;;;;;5033667;28;20225;-58
2023/09/01 10:29:04;;;;;;;3.10;2.50;;;19.40;99.90;;;;;;5034438;28;20211;-58
2023/09/01 10:31:33;;;;;;;4.83;2.73;;;19.30;99.90;;;;;;5032066;28;20303;-59
2023/09/01 10:34:12;;;;;;;2.20;2.00;;;19.20;99.90;;;;;;5034103;28;20201;-60
2023/09/01 10:36:40;;;;;;;5.77;2.17;;;19.20;99.90;;;;;;5033841;28;20203;-60
2023/09/01 10:39:18;;;;;;;2.93;1.73;;;19.30;99.90;;;;;;5008209;28;20224;-57
2023/09/01 10:41:51;;;;;;;4.63;2.53;;;19.40;99.90;;;;;;5030613;28;20216;-57
2023/09/01 10:44:16;;;;;;;3.40;2.50;;;19.60;99.90;;;;;;5033064;28;20788;-57
2023/09/01 10:46:42;;;;;;;6.13;2.10;;;19.50;99.90;;;;;;5043192;28;20227;-60
2023/09/01 10:49:09;;;;;;;4.90;2.23;;;19.40;99.90;;;;;;5037192;28;20204;-56
2023/09/01 10:51:43;;;;;;;2.13;1.97;;;19.30;99.90;;;;;;5037566;28;20254;-57
2023/09/01 10:54:15;;;;;;;8.27;2.90;;;19.20;99.90;;;;;;5015532;28;20922;-56
2023/09/01 10:57:03;;;;;;;2.83;2.10;;;19.20;99.90;;;;;;5038397;28;20190;-57
2023/09/01 10:59:30;;;;;;;5.90;2.63;;;19.40;99.90;;;;;;5028047;28;21028;-53
2023/09/01 11:01:56;;;;;;;2.23;1.73;;;19.50;99.90;;;;;;5039273;28;20234;-54
2023/09/01 11:04:21;;;;;;;6.00;2.60;;;19.80;99.90;;;;;;5038393;28;20311;-53
2023/09/01 11:06:57;;;;;;;4.53;2.23;;;19.70;99.90;;;;;;5040792;28;20200;-57
2023/09/01 11:09:42;;;;;;;5.23;2.60;;;19.90;99.60;;;;;;5036557;28;21136;-62
2023/09/01 11:12:09;;;;;;;4.50;2.27;;;19.80;99.80;;;;;;5032221;28;20216;-57
2023/09/01 11:14:36;;;;;;;3.93;2.50;;;19.70;99.90;;;;;;5015267;28;20214;-57
2023/09/01 11:17:03;;;;;;;4.87;2.30;;;19.70;99.90;;;;;;5033949;28;20815;-57
2023/09/01 11:19:32;;;;;;;3.73;1.90;;;19.90;99.60;;;;;;5033691;28;20796;-57
2023/09/01 11:21:58;;;;;;;5.87;2.43;;;19.70;99.20;;;;;;5030503;28;20209;-58
2023/09/01 11:24:23;;;;;;;4.07;2.30;;;19.70;98.80;;;;;;5038192;28;20222;-56
2023/09/01 11:26:50;;;;;;;3.63;2.00;;;19.70;98.80;;;;;;5030032;28;20830;-57
2023/09/01 11:29:15;;;;;;;4.43;2.50;;;19.70;99.20;;;;;;5030372;28;20202;-56
2023/09/01 11:31:42;;;;;;;4.67;2.03;;;19.70;99.30;;;;;;5033580;28;20216;-57
2023/09/01 11:34:09;;;;;;;3.30;2.23;;;19.90;99.70;;;;;;5033746;28;20275;-57
2023/09/01 11:36:47;;;;;;;4.57;2.43;;;20.00;99.30;;;;;;5037447;28;20189;-56
2023/09/01 11:39:13;;;;;;;3.50;2.10;;;20.10;98.70;;;;;;5035239;28;20197;-58
2023/09/01 11:41:39;;;;;;;5.23;2.33;;;20.10;99.60;;;;;;5026364;28;20192;-56
2023/09/01 11:44:06;;;;;;;5.60;2.73;;;19.90;98.80;;;;;;5030455;28;20195;-56
2023/09/01 11:46:33;;;;;;;6.30;2.40;;;19.80;99.50;;;;;;5038644;28;20204;-57
2023/09/01 11:49:00;;;;;;;5.83;2.33;;;19.80;99.60;;;;;;5030354;28;20280;-56
2023/09/01 11:51:32;;;;;;;5.93;2.20;;;19.80;99.50;;;;;;5022807;28;20235;-57
2023/09/01 11:53:58;;;;;;;3.97;2.40;;;19.90;99.50;;;;;;5037865;28;20216;-57
2023/09/01 11:56:24;;;;;;;2.87;2.43;;;19.80;99.80;;;;;;5043775;28;20237;-57
2023/09/01 11:58:55;;;;;;;5.90;2.57;;;19.90;99.90;;;;;;5036069;28;20758;-57
2023/09/01 12:01:48;;;;;;;4.57;2.67;;;19.90;99.30;;;;;;5030443;28;20215;-57
2023/09/01 12:04:13;;;;;;;3.97;2.30;;;20.10;99.60;;;;;;5025517;28;20218;-57
2023/09/01 12:06:47;;;;;;;3.77;2.27;;;20.20;99.30;;;;;;5035163;28;20270;-56
2023/09/01 12:09:19;;;;;;;3.27;2.17;;;20.20;99.40;;;;;;5019358;28;20205;-57
2023/09/01 12:12:02;;;;;;;3.73;2.33;;;20.50;99.00;;;;;;5032637;28;20207;-57
2023/09/01 12:14:30;;;;;;;3.40;2.20;;;20.60;99.20;;;;;;5032392;28;20270;-57
2023/09/01 12:16:57;;;;;;;3.97;2.20;;;20.50;98.50;;;;;;5038588;28;20207;-57
2023/09/01 12:19:24;;;;;;;2.80;2.20;;;20.70;97.90;;;;;;5033976;28;20234;-57
2023/09/01 12:21:50;;;;;;;3.43;2.30;;;20.80;98.60;;;;;;5032753;28;20207;-57
2023/09/01 12:24:16;;;;;;;1.80;1.70;;;20.90;99.10;;;;;;5037871;28;20205;-57
2023/09/01 12:26:41;;;;;;;4.23;2.07;;;21.10;97.40;;;;;;5014432;28;20236;-56
2023/09/01 12:29:07;;;;;;;3.47;1.77;;;21.90;96.60;;;;;;5013896;28;20351;-56
2023/09/01 12:31:32;;;;;;;4.28;2.05;;;21.70;97.00;;;;;;5036533;28;20202;-55
2023/09/01 12:33:57;;;;;;;4.00;2.70;;;22.70;94.90;;;;;;5037765;28;20226;-57
2023/09/01 12:36:23;;;;;;;2.92;2.20;;;23.00;93.50;;;;;;5031893;28;20229;-56
2023/09/01 12:38:48;;;;;;;3.03;2.13;;;22.90;93.80;;;;;;5034474;28;20222;-57
2023/09/01 12:41:14;;;;;;;6.95;2.33;;;23.00;93.20;;;;;;5036802;28;20593;-56
2023/09/01 12:43:39;;;;;;;3.17;2.53;;;23.40;92.20;;;;;;5030743;28;20206;-57
2023/09/01 12:46:05;;;;;;;4.47;2.60;;;22.80;92.70;;;;;;5031053;28;20210;-57
2023/09/01 12:48:31;;;;;;;2.93;2.00;;;22.20;93.40;;;;;;5019758;28;20229;-57